createdAt,value
2023-03-31T00:01:16.606Z,82460.72
2023-03-31T00:03:45.332Z,82974.03
2023-03-31T00:06:18.679Z,81947.50
2023-03-31T00:08:52.393Z,81434.31
2023-03-31T00:11:21.837Z,81690.91
2023-03-31T00:13:51.601Z,81177.78
2023-03-31T00:16:20.932Z,81434.31
2023-03-31T00:18:51.327Z,82204.09
2023-03-31T00:21:29.762Z,83230.72
2023-03-31T00:23:59.965Z,84000.91
2023-03-31T00:26:29.478Z,85798.66
2023-03-31T00:28:59.709Z,86826.34
2023-03-31T00:31:28.987Z,88368.50
2023-03-31T00:33:57.743Z,89911.31
2023-03-31T00:36:28.533Z,91197.50
2023-03-31T00:39:00.128Z,92226.81
2023-03-31T00:41:29.723Z,94028.84
2023-03-31T00:44:13.222Z,95059.00
2023-03-31T00:46:51.346Z,96347.13
2023-03-31T00:49:27.244Z,97377.97
2023-03-31T00:52:02.426Z,98151.31
2023-03-31T00:54:34.083Z,98409.13
2023-03-31T00:57:06.896Z,99440.56
2023-03-31T00:59:41.523Z,99698.47
2023-03-31T01:02:11.635Z,100214.34
2023-03-31T01:04:44.812Z,100730.31
2023-03-31T01:07:23.148Z,101246.34
2023-03-31T01:09:54.451Z,101762.47
2023-03-31T01:12:24.115Z,102278.66
2023-03-31T01:14:54.366Z,102020.53
2023-03-31T01:17:25.257Z,102536.75
2023-03-31T01:20:11.342Z,102794.91
2023-03-31T01:23:17.022Z,103053.06
2023-03-31T01:26:15.249Z,103827.66
2023-03-31T01:28:48.986Z,104860.72
2023-03-31T01:31:49.642Z,105119.03
2023-03-31T01:34:56.749Z,105894.09
2023-03-31T01:37:57.647Z,106152.47
2023-03-31T01:40:45.896Z,106669.31
2023-03-31T01:43:24.650Z,107186.22
2023-03-31T01:45:58.917Z,107186.22
2023-03-31T01:48:43.593Z,107444.69
2023-03-31T01:51:18.541Z,107703.22
2023-03-31T01:53:52.358Z,108220.28
2023-03-31T01:56:27.168Z,108478.84
2023-03-31T01:59:01.865Z,108737.41
2023-03-31T02:01:38.100Z,109254.63
2023-03-31T02:04:11.277Z,109513.28
2023-03-31T02:06:44.811Z,109513.28
2023-03-31T02:09:18.557Z,109254.63
2023-03-31T02:11:51.341Z,109513.28
2023-03-31T02:14:23.728Z,109771.94
2023-03-31T02:16:58.530Z,109771.94
2023-03-31T02:19:31.206Z,110289.28
2023-03-31T02:22:01.647Z,110289.28
2023-03-31T02:24:33.181Z,110548.00
2023-03-31T02:27:09.523Z,110289.28
2023-03-31T02:29:38.267Z,110548.00
2023-03-31T02:32:14.714Z,110806.75
2023-03-31T02:34:43.216Z,110806.75
2023-03-31T02:37:12.795Z,110806.75
2023-03-31T02:39:45.413Z,110806.75
2023-03-31T02:42:16.136Z,110806.75
2023-03-31T02:44:44.887Z,110806.75
2023-03-31T02:47:15.659Z,110806.75
2023-03-31T02:49:49.905Z,110806.75
2023-03-31T02:52:35.549Z,110806.75
2023-03-31T02:55:43.707Z,110806.75
2023-03-31T02:58:47.728Z,111065.50
2023-03-31T03:01:40.492Z,111065.50
2023-03-31T03:04:25.860Z,111324.28
2023-03-31T03:07:04.683Z,111324.28
2023-03-31T03:09:43.811Z,111324.28
2023-03-31T03:12:18.735Z,111324.28
2023-03-31T03:14:54.883Z,111583.06
2023-03-31T03:17:28.304Z,111583.06
2023-03-31T03:20:00.017Z,111841.88
2023-03-31T03:22:29.342Z,111841.88
2023-03-31T03:24:57.791Z,111583.06
2023-03-31T03:27:26.277Z,111583.06
2023-03-31T03:29:56.240Z,111841.88
2023-03-31T03:32:24.712Z,111583.06
2023-03-31T03:34:53.067Z,111324.28
2023-03-31T03:37:21.422Z,111324.28
2023-03-31T03:39:49.755Z,111324.28
2023-03-31T03:42:18.366Z,111583.06
2023-03-31T03:44:46.699Z,111324.28
2023-03-31T03:47:16.534Z,111583.06
2023-03-31T03:49:45.408Z,111324.28
2023-03-31T03:52:14.002Z,111324.28
2023-03-31T03:54:42.335Z,111583.06
2023-03-31T03:57:11.009Z,111583.06
2023-03-31T03:59:39.285Z,111583.06
2023-03-31T04:02:10.681Z,111583.06
2023-03-31T04:04:40.691Z,111583.06
2023-03-31T04:07:09.020Z,111841.88
2023-03-31T04:09:37.559Z,111583.06
2023-03-31T04:12:06.297Z,111583.06
2023-03-31T04:14:34.670Z,111583.06
2023-03-31T04:17:03.436Z,111324.28
2023-03-31T04:19:32.242Z,111324.28
2023-03-31T04:22:03.024Z,111324.28
2023-03-31T04:24:33.414Z,111324.28
2023-03-31T04:27:03.284Z,111324.28
2023-03-31T04:29:33.861Z,111065.50
2023-03-31T04:32:03.006Z,111065.50
2023-03-31T04:34:36.095Z,111065.50
2023-03-31T04:37:06.158Z,110806.75
2023-03-31T04:39:34.597Z,110548.00
2023-03-31T04:42:03.347Z,110289.28
2023-03-31T04:44:31.648Z,110030.59
2023-03-31T04:47:03.341Z,109771.94
2023-03-31T04:49:33.714Z,109513.28
2023-03-31T04:52:02.240Z,109254.63
2023-03-31T04:54:31.984Z,109254.63
2023-03-31T04:57:00.463Z,108737.41
2023-03-31T04:59:28.925Z,108478.84
2023-03-31T05:01:57.227Z,108478.84
2023-03-31T05:04:25.716Z,108220.28
2023-03-31T05:06:54.109Z,108220.28
2023-03-31T05:09:22.652Z,107961.72
2023-03-31T05:11:52.564Z,108220.28
2023-03-31T05:14:21.249Z,107961.72
2023-03-31T05:16:49.730Z,107703.22
2023-03-31T05:19:18.360Z,107444.69
2023-03-31T05:21:46.815Z,107703.22
2023-03-31T05:24:15.198Z,107186.22
2023-03-31T05:26:48.153Z,106410.88
2023-03-31T05:29:20.998Z,106669.31
2023-03-31T05:31:50.142Z,106410.88
2023-03-31T05:34:18.752Z,106152.47
2023-03-31T05:36:48.155Z,105894.09
2023-03-31T05:39:16.553Z,105894.09
2023-03-31T05:41:44.919Z,106410.88
2023-03-31T05:44:13.478Z,106410.88
2023-03-31T05:46:43.261Z,106152.47
2023-03-31T05:49:12.022Z,105377.34
2023-03-31T05:51:40.363Z,105635.72
2023-03-31T05:54:08.997Z,105377.34
2023-03-31T05:56:37.517Z,104602.44
2023-03-31T05:59:05.994Z,104602.44
2023-03-31T06:01:34.528Z,104602.44
2023-03-31T06:04:04.384Z,104602.44
2023-03-31T06:06:37.174Z,104344.16
2023-03-31T06:09:09.684Z,104344.16
2023-03-31T06:11:39.993Z,104344.16
2023-03-31T06:14:08.294Z,104860.72
2023-03-31T06:16:36.684Z,104602.44
2023-03-31T06:19:06.647Z,104860.72
2023-03-31T06:21:35.638Z,105377.34
2023-03-31T06:24:03.948Z,105377.34
2023-03-31T06:26:32.559Z,105635.72
2023-03-31T06:29:01.127Z,106152.47
2023-03-31T06:31:29.633Z,105894.09
2023-03-31T06:33:58.183Z,106152.47
2023-03-31T06:36:28.060Z,106410.88
2023-03-31T06:38:56.589Z,106410.88
2023-03-31T06:41:24.979Z,106669.31
2023-03-31T06:43:56.259Z,106669.31
2023-03-31T06:46:24.585Z,107186.22
2023-03-31T06:48:52.998Z,107444.69
2023-03-31T06:51:21.325Z,107444.69
2023-03-31T06:53:51.341Z,107444.69
2023-03-31T06:56:19.836Z,107703.22
2023-03-31T06:58:48.286Z,107961.72
2023-03-31T07:01:16.786Z,107961.72
2023-03-31T07:03:46.267Z,107961.72
2023-03-31T07:06:14.881Z,108220.28
2023-03-31T07:08:43.494Z,108220.28
2023-03-31T07:11:13.202Z,108478.84
2023-03-31T07:13:41.535Z,108478.84
2023-03-31T07:16:11.014Z,108478.84
2023-03-31T07:18:42.278Z,108478.84
2023-03-31T07:21:11.027Z,108737.41
2023-03-31T07:23:40.080Z,108478.84
2023-03-31T07:26:08.769Z,107961.72
2023-03-31T07:28:38.735Z,107444.69
2023-03-31T07:31:12.892Z,107444.69
2023-03-31T07:33:41.680Z,107444.69
2023-03-31T07:36:13.935Z,107703.22
2023-03-31T07:38:44.329Z,107444.69
2023-03-31T07:41:13.443Z,106410.88
2023-03-31T07:43:43.437Z,106669.31
2023-03-31T07:46:17.179Z,106669.31
2023-03-31T07:48:46.956Z,106152.47
2023-03-31T07:51:16.981Z,105377.34
2023-03-31T07:53:45.683Z,106152.47
2023-03-31T07:56:14.203Z,105894.09
2023-03-31T07:58:44.123Z,105377.34
2023-03-31T08:01:17.082Z,104860.72
2023-03-31T08:03:46.400Z,104344.16
2023-03-31T08:06:19.718Z,104602.44
2023-03-31T08:08:48.424Z,103827.66
2023-03-31T08:11:17.111Z,103827.66
2023-03-31T08:13:46.959Z,103569.44
2023-03-31T08:16:15.637Z,102020.53
2023-03-31T08:18:44.143Z,102278.66
2023-03-31T08:21:12.738Z,101762.47
2023-03-31T08:23:41.004Z,102020.53
2023-03-31T08:26:11.701Z,101504.38
2023-03-31T08:28:40.160Z,100730.31
2023-03-31T08:31:10.491Z,100214.34
2023-03-31T08:33:39.114Z,100472.31
2023-03-31T08:36:11.026Z,100472.31
2023-03-31T08:38:41.801Z,99956.41
2023-03-31T08:41:29.446Z,99182.69
2023-03-31T08:44:00.013Z,98409.13
2023-03-31T08:46:33.698Z,98924.81
2023-03-31T08:49:04.737Z,97377.97
2023-03-31T08:51:37.538Z,96862.50
2023-03-31T08:54:08.795Z,95316.59
2023-03-31T08:56:42.842Z,94543.91
2023-03-31T08:59:27.975Z,90682.97
2023-03-31T09:02:06.325Z,89139.81
2023-03-31T09:04:56.607Z,85541.78
2023-03-31T09:07:32.322Z,83744.16
2023-03-31T09:10:08.812Z,79382.44
2023-03-31T09:12:48.753Z,79895.28
2023-03-31T09:15:26.176Z,73490.06
2023-03-31T09:17:57.932Z,72210.47
2023-03-31T09:20:31.759Z,67989.13
2023-03-31T09:23:05.839Z,66390.28
2023-03-31T09:25:39.548Z,66410.22
2023-03-31T09:28:20.141Z,64084.13
2023-03-31T09:30:50.819Z,62726.31
2023-03-31T09:33:32.303Z,63569.66
2023-03-31T09:36:00.977Z,61787.50
2023-03-31T09:38:31.376Z,61532.44
2023-03-31T09:41:02.150Z,60173.63
2023-03-31T09:43:33.033Z,59181.75
2023-03-31T09:46:09.586Z,57859.75
2023-03-31T09:48:41.253Z,57135.22
2023-03-31T09:51:20.096Z,56293.47
2023-03-31T09:53:52.847Z,56172.13
2023-03-31T09:56:35.360Z,55467.84
2023-03-31T09:59:05.301Z,55638.94
2023-03-31T10:01:34.159Z,55447.97
2023-03-31T10:04:05.818Z,55241.09
2023-03-31T10:06:35.435Z,55225.19
2023-03-31T10:09:06.517Z,55213.25
2023-03-31T10:11:34.933Z,54966.59
2023-03-31T10:14:05.347Z,54712.03
2023-03-31T10:16:35.848Z,54544.97
2023-03-31T10:19:22.317Z,100472.31
2023-03-31T10:21:58.142Z,58891.03
2023-03-31T10:24:31.491Z,59042.38
2023-03-31T10:27:00.157Z,59540.22
2023-03-31T10:29:32.646Z,59936.59
2023-03-31T10:32:06.262Z,60159.69
2023-03-31T10:34:42.824Z,60564.06
2023-03-31T10:37:17.684Z,58401.22
2023-03-31T10:39:47.727Z,58022.97
2023-03-31T10:42:23.144Z,56500.41
2023-03-31T10:44:51.658Z,56128.34
2023-03-31T10:47:22.414Z,55694.63
2023-03-31T10:49:58.578Z,55535.50
2023-03-31T10:52:28.469Z,55392.25
2023-03-31T10:54:59.872Z,55217.22
2023-03-31T10:57:40.793Z,54946.72
2023-03-31T11:00:30.285Z,55018.31
2023-03-31T11:03:21.139Z,55233.13
2023-03-31T11:05:56.676Z,55133.69
2023-03-31T11:08:37.652Z,55241.09
2023-03-31T11:11:20.695Z,55058.09
2023-03-31T11:13:58.155Z,54863.19
2023-03-31T11:16:33.877Z,54630.50
2023-03-31T11:19:19.026Z,54533.06
2023-03-31T11:22:00.648Z,54656.34
2023-03-31T11:24:41.524Z,54537.03
2023-03-31T11:27:24.881Z,54415.72
2023-03-31T11:29:58.962Z,54393.84
2023-03-31T11:32:47.165Z,54425.66
2023-03-31T11:35:35.731Z,54371.97
2023-03-31T11:38:24.015Z,54401.81
2023-03-31T11:41:01.500Z,54417.72
2023-03-31T11:43:36.361Z,54397.81
2023-03-31T11:46:10.109Z,54413.72
2023-03-31T11:48:46.109Z,54487.31
2023-03-31T11:51:19.458Z,54574.81
2023-03-31T11:53:52.264Z,54743.84
2023-03-31T11:56:23.545Z,54781.66
2023-03-31T11:58:56.345Z,54779.66
2023-03-31T12:01:30.417Z,54666.28
2023-03-31T12:04:03.144Z,54706.06
2023-03-31T12:06:34.570Z,54588.75
2023-03-31T12:09:18.003Z,54443.56
2023-03-31T12:11:54.474Z,54330.22
2023-03-31T12:14:28.752Z,54218.84
2023-03-31T12:17:03.484Z,54226.81
2023-03-31T12:19:37.317Z,54193.00
2023-03-31T12:22:12.020Z,54278.50
2023-03-31T12:24:41.974Z,54266.59
2023-03-31T12:27:18.732Z,54195.00
2023-03-31T12:29:52.447Z,54230.78
2023-03-31T12:32:24.856Z,54224.81
2023-03-31T12:35:00.425Z,54171.13
2023-03-31T12:38:04.275Z,54097.56
2023-03-31T12:40:47.522Z,54165.16
2023-03-31T12:43:50.709Z,54129.38
2023-03-31T12:46:34.855Z,54187.03
2023-03-31T12:49:23.186Z,54101.53
2023-03-31T12:52:04.057Z,54045.88
2023-03-31T12:54:54.198Z,54043.88
2023-03-31T12:57:25.500Z,54071.72
2023-03-31T13:00:26.325Z,53980.25
2023-03-31T13:03:28.622Z,53964.34
2023-03-31T13:05:56.992Z,53940.47
2023-03-31T13:08:52.230Z,53984.22
2023-03-31T13:11:22.678Z,54008.09
2023-03-31T13:14:01.898Z,53914.63
2023-03-31T13:16:31.371Z,53940.47
2023-03-31T13:19:00.486Z,53892.75
2023-03-31T13:21:54.645Z,53892.75
2023-03-31T13:24:24.870Z,53860.94
2023-03-31T13:26:56.755Z,53841.06
2023-03-31T13:29:40.808Z,53849.03
2023-03-31T13:32:21.553Z,53805.28
2023-03-31T13:35:02.686Z,53833.13
2023-03-31T13:37:51.965Z,53797.31
2023-03-31T13:40:34.460Z,53821.19
2023-03-31T13:43:27.324Z,53801.31
2023-03-31T13:46:21.157Z,53835.09
2023-03-31T13:49:00.541Z,53811.25
2023-03-31T13:51:43.994Z,53829.13
2023-03-31T13:54:54.099Z,53930.53
2023-03-31T13:57:59.046Z,54087.63
2023-03-31T14:00:39.030Z,54264.59
2023-03-31T14:03:21.850Z,54801.53
2023-03-31T14:05:57.459Z,55000.41
2023-03-31T14:08:41.175Z,55338.56
2023-03-31T14:11:26.949Z,55734.41
2023-03-31T14:14:06.565Z,56001.00
2023-03-31T14:16:39.828Z,56474.53
2023-03-31T14:19:30.580Z,56629.75
2023-03-31T14:22:08.254Z,56496.44
2023-03-31T14:24:43.058Z,56414.84
2023-03-31T14:27:25.666Z,56152.22
2023-03-31T14:30:02.652Z,55925.41
2023-03-31T14:32:39.954Z,55684.69
2023-03-31T14:35:26.737Z,55553.41
2023-03-31T14:37:56.558Z,55438.03
2023-03-31T14:40:26.874Z,55352.47
2023-03-31T14:42:56.010Z,55231.16
2023-03-31T14:45:26.738Z,54853.25
2023-03-31T14:47:56.959Z,54692.16
2023-03-31T14:50:35.141Z,54656.34
2023-03-31T14:53:05.137Z,54686.19
2023-03-31T14:58:08.299Z,54682.22
2023-03-31T15:00:40.367Z,54819.44
2023-03-31T15:03:14.257Z,54920.88
2023-03-31T15:05:47.466Z,54914.91
2023-03-31T15:08:22.284Z,55038.22
2023-03-31T15:10:58.865Z,55133.69
2023-03-31T15:13:36.474Z,55091.91
2023-03-31T15:16:31.284Z,54934.78
2023-03-31T15:19:01.733Z,55044.19
2023-03-31T15:21:35.482Z,54968.59
2023-03-31T15:24:06.184Z,55135.66
2023-03-31T15:26:41.457Z,55085.94
2023-03-31T15:29:16.990Z,55278.88
2023-03-31T15:31:45.680Z,55320.66
2023-03-31T15:34:23.256Z,55487.75
2023-03-31T15:36:56.024Z,55599.16
2023-03-31T15:39:26.023Z,55748.34
2023-03-31T15:41:56.346Z,55869.69
2023-03-31T15:44:38.384Z,55967.19
2023-03-31T15:47:17.063Z,56430.78
2023-03-31T15:49:52.320Z,56454.66
2023-03-31T15:52:30.281Z,56798.91
2023-03-31T15:54:59.212Z,56962.09
2023-03-31T15:57:34.701Z,56556.13
2023-03-31T16:00:05.191Z,56584.00
2023-03-31T16:02:47.017Z,56552.16
2023-03-31T16:05:43.735Z,56333.28
2023-03-31T16:08:27.384Z,56279.56
2023-03-31T16:11:03.328Z,56392.97
2023-03-31T16:13:33.824Z,56647.66
2023-03-31T16:16:02.483Z,56952.13
2023-03-31T16:18:35.860Z,56816.81
2023-03-31T16:21:07.314Z,57061.59
2023-03-31T16:23:41.251Z,57310.38
2023-03-31T16:26:09.978Z,57750.25
2023-03-31T16:28:39.612Z,58311.63
2023-03-31T16:31:34.513Z,58843.25
2023-03-31T16:34:04.480Z,59205.66
2023-03-31T16:36:33.118Z,59699.56
2023-03-31T16:39:05.208Z,60446.53
2023-03-31T16:41:34.735Z,60621.84
2023-03-31T16:44:03.256Z,61189.69
2023-03-31T16:46:31.721Z,61663.94
2023-03-31T16:49:00.358Z,62792.09
2023-03-31T16:51:28.850Z,64447.09
2023-03-31T16:53:59.025Z,65608.09
2023-03-31T16:56:29.277Z,66909.19
2023-03-31T16:58:57.769Z,69864.41
2023-03-31T17:01:26.318Z,73746.06
2023-03-31T17:03:55.197Z,75026.22
2023-03-31T17:06:23.618Z,76563.09
2023-03-31T17:08:51.993Z,77588.03
2023-03-31T17:11:20.573Z,78356.94
2023-03-31T17:13:56.685Z,78869.66
2023-03-31T17:16:32.856Z,78356.94
2023-03-31T17:19:08.812Z,78356.94
2023-03-31T17:21:37.989Z,78613.28
2023-03-31T17:24:08.740Z,78613.28
2023-03-31T17:26:37.811Z,79638.84
2023-03-31T17:29:07.710Z,80664.72
2023-03-31T17:31:36.268Z,82204.09
2023-03-31T17:34:04.917Z,82460.72
2023-03-31T17:36:33.454Z,82717.38
2023-03-31T17:39:02.752Z,82974.03
2023-03-31T17:41:31.089Z,84514.44
2023-03-31T17:43:59.636Z,85798.66
2023-03-31T17:46:29.507Z,87083.34
2023-03-31T17:48:59.224Z,89654.13
2023-03-31T17:51:28.952Z,90168.50
2023-03-31T17:53:57.562Z,90940.22
2023-03-31T17:56:28.616Z,92226.81
2023-03-31T17:58:57.364Z,92741.59
2023-03-31T18:01:26.120Z,93513.91
2023-03-31T18:03:57.785Z,93771.38
2023-03-31T18:06:26.363Z,93771.38
2023-03-31T18:08:57.041Z,94028.84
2023-03-31T18:11:26.149Z,94028.84
2023-03-31T18:13:54.598Z,93513.91
2023-03-31T18:16:23.765Z,92226.81
2023-03-31T18:18:52.379Z,91197.50
2023-03-31T18:21:23.943Z,90940.22
2023-03-31T18:23:55.070Z,90425.72
2023-03-31T18:26:26.130Z,89139.81
2023-03-31T18:28:54.806Z,87597.34
2023-03-31T18:31:24.876Z,86569.41
2023-03-31T18:33:54.862Z,85284.91
2023-03-31T18:36:25.177Z,84514.44
2023-03-31T18:38:53.855Z,84000.91
2023-03-31T18:41:23.126Z,84000.91
2023-03-31T18:43:52.439Z,82460.72
2023-03-31T18:46:21.279Z,81947.50
2023-03-31T18:48:50.347Z,78869.66
2023-03-31T18:51:19.348Z,76563.09
2023-03-31T18:53:49.159Z,73490.06
2023-03-31T18:56:17.637Z,72210.47
2023-03-31T18:58:46.665Z,71187.13
2023-03-31T19:01:15.214Z,72210.47
2023-03-31T19:03:43.920Z,72722.25
2023-03-31T19:06:12.488Z,74002.03
2023-03-31T19:08:41.477Z,76050.72
2023-03-31T19:11:15.800Z,77075.53
2023-03-31T19:13:45.072Z,78869.66
2023-03-31T19:16:14.485Z,80921.25
2023-03-31T19:18:43.805Z,82717.38
2023-03-31T19:21:12.454Z,84514.44
2023-03-31T19:23:41.135Z,86569.41
2023-03-31T19:26:12.333Z,88625.56
2023-03-31T19:28:42.502Z,89396.97
2023-03-31T19:31:12.373Z,90168.50
2023-03-31T19:33:40.930Z,91197.50
2023-03-31T19:36:09.547Z,91712.13
2023-03-31T19:38:38.075Z,91454.81
2023-03-31T19:41:06.973Z,91454.81
2023-03-31T19:43:35.857Z,91197.50
2023-03-31T19:46:05.932Z,90940.22
2023-03-31T19:48:34.430Z,90940.22
2023-03-31T19:51:05.953Z,90682.97
2023-03-31T19:53:34.391Z,90682.97
2023-03-31T19:56:05.789Z,89911.31
2023-03-31T19:58:35.972Z,89654.13
2023-03-31T20:01:08.274Z,89396.97
2023-03-31T20:03:36.972Z,89396.97
2023-03-31T20:06:07.177Z,88882.69
2023-03-31T20:08:35.916Z,88625.56
2023-03-31T20:11:06.300Z,88625.56
2023-03-31T20:13:35.936Z,88368.50
2023-03-31T20:16:08.634Z,88368.50
2023-03-31T20:18:38.266Z,88111.41
2023-03-31T20:21:08.646Z,88111.41
2023-03-31T20:23:38.097Z,88368.50
2023-03-31T20:26:09.074Z,88625.56
2023-03-31T20:28:39.109Z,88368.50
2023-03-31T20:31:10.570Z,88625.56
2023-03-31T20:33:39.505Z,89139.81
2023-03-31T20:36:10.155Z,88882.69
2023-03-31T20:38:39.395Z,89396.97
2023-03-31T20:41:08.817Z,89654.13
2023-03-31T20:43:37.533Z,90168.50
2023-03-31T20:46:08.976Z,90425.72
2023-03-31T20:48:40.933Z,90940.22
2023-03-31T20:51:11.573Z,91969.47
2023-03-31T20:53:42.867Z,91454.81
2023-03-31T20:56:12.553Z,91969.47
2023-03-31T20:58:44.002Z,91969.47
2023-03-31T21:01:14.316Z,92226.81
2023-03-31T21:03:44.561Z,91969.47
2023-03-31T21:06:15.643Z,91454.81
2023-03-31T21:08:46.742Z,91197.50
2023-03-31T21:11:16.245Z,91197.50
2023-03-31T21:13:45.708Z,90425.72
2023-03-31T21:16:16.242Z,90682.97
2023-03-31T21:18:46.349Z,90682.97
2023-03-31T21:21:18.850Z,90940.22
2023-03-31T21:23:49.724Z,91454.81
2023-03-31T21:26:18.691Z,91454.81
2023-03-31T21:28:48.197Z,92226.81
2023-03-31T21:31:18.899Z,92741.59
2023-03-31T21:33:48.862Z,93256.44
2023-03-31T21:36:19.198Z,93771.38
2023-03-31T21:38:47.683Z,94801.44
2023-03-31T21:41:18.324Z,94801.44
2023-03-31T21:43:48.897Z,95574.19
2023-03-31T21:46:18.478Z,95831.81
2023-03-31T21:48:51.865Z,96089.47
2023-03-31T21:51:22.088Z,96347.13
2023-03-31T21:53:53.196Z,96604.81
2023-03-31T21:56:21.888Z,97120.22
2023-03-31T21:58:51.909Z,97377.97
2023-03-31T22:01:21.660Z,97635.72
2023-03-31T22:03:52.259Z,97893.50
2023-03-31T22:06:21.561Z,97893.50
2023-03-31T22:08:50.045Z,98151.31
2023-03-31T22:11:18.461Z,98151.31
2023-03-31T22:13:47.053Z,98409.13
2023-03-31T22:16:18.103Z,98151.31
2023-03-31T22:18:47.294Z,98666.94
2023-03-31T22:21:22.397Z,99440.56
2023-03-31T22:23:52.454Z,99956.41
2023-03-31T22:26:21.036Z,100472.31
2023-03-31T22:28:49.683Z,100988.31
2023-03-31T22:31:18.094Z,101246.34
2023-03-31T22:33:46.824Z,101504.38
2023-03-31T22:36:15.795Z,101762.47
2023-03-31T22:38:45.806Z,102020.53
2023-03-31T22:41:15.822Z,102794.91
2023-03-31T22:43:46.058Z,102794.91
2023-03-31T22:46:14.865Z,103311.25
2023-03-31T22:48:43.164Z,103569.44
2023-03-31T22:51:12.182Z,103569.44
2023-03-31T22:53:40.802Z,104085.91
2023-03-31T22:56:13.319Z,104085.91
2023-03-31T22:58:41.760Z,104085.91
2023-03-31T23:01:15.811Z,104344.16
2023-03-31T23:03:44.675Z,104602.44
2023-03-31T23:06:14.344Z,104602.44
2023-03-31T23:08:44.867Z,104860.72
2023-03-31T23:11:14.579Z,105119.03
2023-03-31T23:13:42.974Z,104860.72
2023-03-31T23:16:34.575Z,104860.72
2023-03-31T23:19:03.787Z,104602.44
2023-03-31T23:21:32.646Z,104860.72
2023-03-31T23:24:03.052Z,105377.34
2023-03-31T23:26:34.477Z,105894.09
2023-03-31T23:29:03.251Z,106152.47
2023-03-31T23:31:33.251Z,106410.88
2023-03-31T23:34:02.094Z,107186.22
2023-03-31T23:36:31.216Z,107186.22
2023-03-31T23:38:59.509Z,107444.69
2023-03-31T23:41:28.110Z,107703.22
2023-03-31T23:43:58.224Z,107961.72
2023-03-31T23:46:26.994Z,108220.28
2023-03-31T23:48:55.893Z,108220.28
2023-03-31T23:51:24.280Z,108220.28
2023-03-31T23:53:53.001Z,108220.28
2023-03-31T23:56:21.736Z,107961.72
2023-03-31T23:58:53.576Z,107444.69
